Time;durP1;ratioP1;P1;durP2;ratioP2;P2;SDS_P1;SDS_P2;PMS_P1;PMS_P2;Temp;Humidity;BMP_temperature;BMP_pressure;BME280_temperature;BME280_humidity;BME280_pressure;Samples;Min_cycle;Max_cycle;Signal;HPM_P1;HPM_P2
2024/03/11 00:00:21;;;;;;;35.75;26.08;;;;;;;;;;5071263;28;20433;-85
2024/03/11 00:02:49;;;;;;;33.95;24.63;;;;;;;;;;5056050;28;20056;-85
2024/03/11 00:05:17;;;;;;;36.30;25.23;;;;;;;;;;5055953;28;20049;-85
2024/03/11 00:07:46;;;;;;;35.00;26.30;;;;;;;;;;5055653;28;20064;-86
2024/03/11 00:10:14;;;;;;;37.53;26.10;;;;;;;;;;5071063;28;20045;-86
2024/03/11 00:12:49;;;;;;;35.28;25.05;;;;;;;;;;5054698;28;20048;-86
2024/03/11 00:15:20;;;;;;;37.35;26.23;;;;;;;;;;5071325;28;20045;-85
2024/03/11 00:17:48;;;;;;;32.08;24.85;;;;;;;;;;5071164;28;20084;-85
2024/03/11 00:20:16;;;;;;;37.60;26.75;;;;;;;;;;5055554;28;20111;-85
2024/03/11 00:22:45;;;;;;;33.25;24.55;;;;;;;;;;5054311;28;20076;-85
2024/03/11 00:25:12;;;;;;;37.22;25.67;;;;;;;;;;5055847;28;20075;-85
2024/03/11 00:27:39;;;;;;;36.17;25.30;;;;;;;;;;5054503;28;20052;-85
2024/03/11 00:30:08;;;;;;;35.95;24.42;;;;;;;;;;5046969;28;20044;-85
2024/03/11 00:32:36;;;;;;;32.38;24.45;;;;;;;;;;5071001;28;20049;-85
2024/03/11 00:35:03;;;;;;;36.10;25.45;;;;;;;;;;5054466;28;20080;-85
2024/03/11 00:37:31;;;;;;;36.03;25.40;;;;;;;;;;5071065;28;20065;-85
2024/03/11 00:39:58;;;;;;;31.20;24.40;;;;;;;;;;5055245;28;20420;-85
2024/03/11 00:42:26;;;;;;;34.28;24.17;;;;;;;;;;5070708;28;20123;-85
2024/03/11 00:44:53;;;;;;;31.08;24.42;;;;;;;;;;5055151;28;20040;-86
2024/03/11 00:47:23;;;;;;;36.50;25.77;;;;;;;;;;5070756;28;20107;-85
2024/03/11 00:49:51;;;;;;;34.20;24.85;;;;;;;;;;5070723;28;20060;-86
2024/03/11 00:52:18;;;;;;;33.55;24.90;;;;;;;;;;5055339;28;20429;-86
2024/03/11 00:54:46;;;;;;;36.83;25.70;;;;;;;;;;5055217;28;20045;-85
2024/03/11 00:57:14;;;;;;;36.67;25.23;;;;;;;;;;5055253;28;20095;-86
2024/03/11 00:59:41;;;;;;;33.78;25.00;;;;;;;;;;5055269;28;20041;-86
2024/03/11 01:02:12;;;;;;;35.33;26.35;;;;;;;;;;5070253;28;20140;-87
2024/03/11 01:04:42;;;;;;;35.03;26.05;;;;;;;;;;5071592;28;20053;-88
2024/03/11 01:07:09;;;;;;;31.83;24.45;;;;;;;;;;5071147;28;20061;-88
2024/03/11 01:09:51;;;;;;;34.47;25.02;;;;;;;;;;5069000;28;20409;-88
2024/03/11 01:12:22;;;;;;;34.85;26.08;;;;;;;;;;5070479;28;20060;-88
2024/03/11 01:14:51;;;;;;;34.95;26.27;;;;;;;;;;5054950;28;20553;-88
2024/03/11 01:17:19;;;;;;;34.33;26.08;;;;;;;;;;5070560;28;20476;-89
2024/03/11 01:19:47;;;;;;;35.38;26.70;;;;;;;;;;5055142;28;20124;-89
2024/03/11 01:22:16;;;;;;;38.17;28.08;;;;;;;;;;5070320;28;20489;-89
2024/03/11 01:24:43;;;;;;;41.05;29.40;;;;;;;;;;5070646;28;20076;-89
2024/03/11 01:27:11;;;;;;;40.70;29.73;;;;;;;;;;5070393;28;20048;-89
2024/03/11 01:29:38;;;;;;;40.10;29.42;;;;;;;;;;5070588;28;20041;-89
2024/03/11 01:32:07;;;;;;;39.10;29.33;;;;;;;;;;5070246;28;20052;-88
2024/03/11 01:34:35;;;;;;;42.40;29.40;;;;;;;;;;5053973;28;20405;-89
2024/03/11 01:37:02;;;;;;;42.15;29.67;;;;;;;;;;5062270;28;20052;-89
2024/03/11 01:39:42;;;;;;;39.83;29.13;;;;;;;;;;5070332;28;20057;-89
2024/03/11 01:42:14;;;;;;;40.55;29.45;;;;;;;;;;5070084;28;20106;-89
2024/03/11 01:44:49;;;;;;;43.47;30.05;;;;;;;;;;5054789;28;20055;-89
2024/03/11 01:47:18;;;;;;;42.83;30.08;;;;;;;;;;5054244;28;20048;-89
2024/03/11 01:49:52;;;;;;;44.08;31.85;;;;;;;;;;5054400;28;20494;-89
2024/03/11 01:52:22;;;;;;;50.75;32.97;;;;;;;;;;5069901;28;20080;-89
2024/03/11 01:54:51;;;;;;;44.65;30.60;;;;;;;;;;5070170;28;20114;-89
2024/03/11 01:57:19;;;;;;;46.92;32.58;;;;;;;;;;5069863;28;20084;-89
2024/03/11 01:59:47;;;;;;;44.65;32.45;;;;;;;;;;5053116;28;20056;-89
2024/03/11 02:02:14;;;;;;;49.35;33.72;;;;;;;;;;5069701;28;20051;-89
2024/03/11 02:04:45;;;;;;;45.45;32.60;;;;;;;;;;5069650;28;20417;-89
2024/03/11 02:07:13;;;;;;;42.92;31.35;;;;;;;;;;5069381;28;20102;-89
2024/03/11 02:09:41;;;;;;;47.95;32.05;;;;;;;;;;5069491;28;20053;-87
2024/03/11 02:12:14;;;;;;;44.00;31.40;;;;;;;;;;5069171;28;20467;-89
2024/03/11 02:14:41;;;;;;;42.78;31.40;;;;;;;;;;5069675;28;20450;-89
2024/03/11 02:17:09;;;;;;;45.67;32.13;;;;;;;;;;5053886;28;20053;-89
2024/03/11 02:19:37;;;;;;;45.70;32.00;;;;;;;;;;5053696;28;20048;-89
2024/03/11 02:22:04;;;;;;;41.83;30.60;;;;;;;;;;5053891;28;20359;-87
2024/03/11 02:24:32;;;;;;;46.83;30.85;;;;;;;;;;5069343;28;20136;-89
2024/03/11 02:26:59;;;;;;;52.45;34.50;;;;;;;;;;5053624;28;20049;-88
2024/03/11 02:29:26;;;;;;;76.22;44.50;;;;;;;;;;5053447;28;20041;-88
2024/03/11 02:31:54;;;;;;;97.65;53.45;;;;;;;;;;5053196;28;20060;-87
2024/03/11 02:34:21;;;;;;;111.22;56.95;;;;;;;;;;5053616;28;20052;-88
2024/03/11 02:36:50;;;;;;;103.15;57.05;;;;;;;;;;5053623;28;20053;-89
2024/03/11 02:39:19;;;;;;;99.75;55.97;;;;;;;;;;5068918;28;20044;-88
2024/03/11 02:41:47;;;;;;;94.53;53.30;;;;;;;;;;5069110;28;20052;-88
2024/03/11 02:44:14;;;;;;;80.13;49.47;;;;;;;;;;5068761;28;20052;-86
2024/03/11 02:46:42;;;;;;;75.88;46.58;;;;;;;;;;5068935;28;20136;-88
2024/03/11 02:49:10;;;;;;;70.82;43.45;;;;;;;;;;5053088;28;20448;-88
2024/03/11 02:51:42;;;;;;;60.00;40.53;;;;;;;;;;5053097;28;20067;-88
2024/03/11 02:54:09;;;;;;;61.50;40.30;;;;;;;;;;5068920;28;20056;-88
2024/03/11 02:56:37;;;;;;;55.92;37.88;;;;;;;;;;5068797;28;20052;-88
2024/03/11 02:59:05;;;;;;;56.10;38.67;;;;;;;;;;5052566;28;20068;-87
2024/03/11 03:01:32;;;;;;;57.22;37.78;;;;;;;;;;5068847;28;20052;-86
2024/03/11 03:04:00;;;;;;;53.95;35.70;;;;;;;;;;5052988;28;20136;-87
2024/03/11 03:06:27;;;;;;;46.95;33.15;;;;;;;;;;5051759;28;20083;-86
2024/03/11 03:08:55;;;;;;;40.33;29.33;;;;;;;;;;5052723;28;20052;-87
2024/03/11 03:11:22;;;;;;;46.60;32.17;;;;;;;;;;5053163;28;20388;-88
2024/03/11 03:13:50;;;;;;;38.63;28.05;;;;;;;;;;5052880;28;20048;-87
2024/03/11 03:16:18;;;;;;;43.13;29.00;;;;;;;;;;5052905;28;20460;-87
2024/03/11 03:18:45;;;;;;;29.17;23.40;;;;;;;;;;5052801;28;20079;-87
2024/03/11 03:21:12;;;;;;;33.08;24.63;;;;;;;;;;5052814;28;20099;-87
2024/03/11 03:23:39;;;;;;;29.50;23.40;;;;;;;;;;5068334;28;20083;-88
2024/03/11 03:26:07;;;;;;;30.38;23.35;;;;;;;;;;5052933;28;20099;-87
2024/03/11 03:28:35;;;;;;;24.67;19.45;;;;;;;;;;5068311;28;20053;-86
2024/03/11 03:31:04;;;;;;;25.23;20.10;;;;;;;;;;5044593;28;20095;-87
2024/03/11 03:33:32;;;;;;;26.35;20.13;;;;;;;;;;5068498;28;20057;-87
2024/03/11 03:35:59;;;;;;;26.60;20.50;;;;;;;;;;5052887;28;20508;-86
2024/03/11 03:38:26;;;;;;;26.95;20.17;;;;;;;;;;5052714;28;20106;-87
2024/03/11 03:40:53;;;;;;;26.98;20.25;;;;;;;;;;5052603;28;20049;-87
2024/03/11 03:43:21;;;;;;;26.58;19.80;;;;;;;;;;5068258;28;20558;-87
2024/03/11 03:45:48;;;;;;;25.33;19.58;;;;;;;;;;5068491;28;20041;-87
2024/03/11 03:48:16;;;;;;;22.33;17.38;;;;;;;;;;5051406;28;20141;-87
2024/03/11 03:50:43;;;;;;;20.80;16.50;;;;;;;;;;5052392;28;20102;-87
2024/03/11 03:53:11;;;;;;;20.42;15.82;;;;;;;;;;5067978;28;20148;-86
2024/03/11 03:55:38;;;;;;;18.42;15.45;;;;;;;;;;5052777;28;20132;-87
2024/03/11 03:58:07;;;;;;;18.08;15.35;;;;;;;;;;5068144;28;20049;-87
2024/03/11 04:00:35;;;;;;;19.98;15.75;;;;;;;;;;5052414;28;20140;-87
2024/03/11 04:03:03;;;;;;;18.77;15.63;;;;;;;;;;5059940;28;20517;-87
2024/03/11 04:05:30;;;;;;;16.35;13.95;;;;;;;;;;5052506;28;20689;-87
2024/03/11 04:07:58;;;;;;;14.90;12.98;;;;;;;;;;5067658;28;20087;-87
2024/03/11 04:10:26;;;;;;;14.30;11.70;;;;;;;;;;5053044;28;20482;-87
2024/03/11 04:12:55;;;;;;;11.48;10.05;;;;;;;;;;5071314;28;20486;-86
2024/03/11 04:15:23;;;;;;;10.23;9.23;;;;;;;;;;5071530;28;20597;-85
2024/03/11 04:17:53;;;;;;;8.93;8.02;;;;;;;;;;5056101;28;20424;-87
2024/03/11 04:20:27;;;;;;;9.82;8.70;;;;;;;;;;5071120;28;20078;-86
2024/03/11 04:22:56;;;;;;;8.05;6.60;;;;;;;;;;5056211;28;20051;-87
2024/03/11 04:25:28;;;;;;;7.18;6.47;;;;;;;;;;5071343;28;20147;-84
2024/03/11 04:27:56;;;;;;;6.72;6.22;;;;;;;;;;5071042;28;20386;-86
2024/03/11 04:30:34;;;;;;;7.10;6.40;;;;;;;;;;5055412;28;20053;-86
2024/03/11 04:33:02;;;;;;;6.25;5.75;;;;;;;;;;5070923;28;20049;-87
2024/03/11 04:35:31;;;;;;;6.72;6.13;;;;;;;;;;5069856;28;20083;-86
2024/03/11 04:38:05;;;;;;;6.53;5.93;;;;;;;;;;5055304;28;20048;-86
2024/03/11 04:40:34;;;;;;;6.30;5.70;;;;;;;;;;5071025;28;20048;-86
2024/03/11 04:43:02;;;;;;;6.00;5.50;;;;;;;;;;5070901;28;20576;-86
2024/03/11 04:45:30;;;;;;;5.80;5.30;;;;;;;;;;5055559;28;20102;-86
2024/03/11 04:47:58;;;;;;;6.38;5.88;;;;;;;;;;5055175;28;20068;-86
2024/03/11 04:50:30;;;;;;;5.57;5.18;;;;;;;;;;5055213;28;20045;-86
2024/03/11 04:52:59;;;;;;;5.75;5.25;;;;;;;;;;5055213;28;20084;-87
2024/03/11 04:55:30;;;;;;;6.32;5.63;;;;;;;;;;5070947;28;20110;-87
2024/03/11 04:57:57;;;;;;;5.55;5.05;;;;;;;;;;5070608;28;20061;-86
2024/03/11 05:00:29;;;;;;;5.40;5.00;;;;;;;;;;5070728;28;20110;-87
2024/03/11 05:02:57;;;;;;;5.03;4.63;;;;;;;;;;5055072;28;20045;-86
2024/03/11 05:05:25;;;;;;;4.78;4.32;;;;;;;;;;5054332;28;20450;-86
2024/03/11 05:07:53;;;;;;;4.35;4.05;;;;;;;;;;5070435;28;20053;-86
2024/03/11 05:10:21;;;;;;;4.28;3.97;;;;;;;;;;5055006;28;20098;-85
2024/03/11 05:12:49;;;;;;;3.28;3.08;;;;;;;;;;5069832;28;20052;-85
2024/03/11 05:15:17;;;;;;;3.13;2.92;;;;;;;;;;5054792;28;20044;-86
2024/03/11 05:17:45;;;;;;;3.15;2.95;;;;;;;;;;5054707;28;20048;-85
2024/03/11 05:20:14;;;;;;;3.15;2.95;;;;;;;;;;5070328;28;20167;-86
2024/03/11 05:22:43;;;;;;;3.00;2.80;;;;;;;;;;5069935;28;20045;-85
2024/03/11 05:25:17;;;;;;;3.00;2.80;;;;;;;;;;5053575;28;20045;-86
2024/03/11 05:27:52;;;;;;;3.13;2.92;;;;;;;;;;5054545;28;20555;-86
2024/03/11 05:30:19;;;;;;;3.80;3.50;;;;;;;;;;5069963;28;20505;-85
2024/03/11 05:32:48;;;;;;;3.30;3.00;;;;;;;;;;5070070;28;20107;-86
2024/03/11 05:35:16;;;;;;;3.58;3.38;;;;;;;;;;5054523;28;20098;-86
2024/03/11 05:37:48;;;;;;;3.63;3.33;;;;;;;;;;5068975;28;20110;-86
2024/03/11 05:40:15;;;;;;;8.10;7.30;;;;;;;;;;5053017;28;20514;-86
2024/03/11 05:42:42;;;;;;;3.75;3.47;;;;;;;;;;5069618;28;20087;-86
2024/03/11 05:45:10;;;;;;;2.72;2.63;;;;;;;;;;5054166;28;20128;-85
2024/03/11 05:47:41;;;;;;;2.20;2.10;;;;;;;;;;5069716;28;20544;-86
2024/03/11 05:50:09;;;;;;;2.17;2.08;;;;;;;;;;5069531;28;20154;-86
2024/03/11 05:52:38;;;;;;;2.30;2.20;;;;;;;;;;5053891;28;20127;-86
2024/03/11 05:55:11;;;;;;;2.17;2.08;;;;;;;;;;5069696;28;20053;-86
2024/03/11 05:57:40;;;;;;;3.30;3.10;;;;;;;;;;5054071;28;20433;-86
2024/03/11 06:00:15;;;;;;;2.03;1.92;;;;;;;;;;5053873;28;20052;-86
2024/03/11 06:02:46;;;;;;;2.30;2.10;;;;;;;;;;5053704;28;20524;-85
2024/03/11 06:05:16;;;;;;;1.98;1.88;;;;;;;;;;5053057;28;20224;-86
2024/03/11 06:07:44;;;;;;;2.15;2.05;;;;;;;;;;5069142;28;20059;-86
2024/03/11 06:10:11;;;;;;;2.25;2.15;;;;;;;;;;5069101;28;20049;-86
2024/03/11 06:12:38;;;;;;;2.50;2.40;;;;;;;;;;5053582;28;20056;-86
2024/03/11 06:15:06;;;;;;;2.20;2.10;;;;;;;;;;5069023;28;20049;-86
2024/03/11 06:17:33;;;;;;;2.75;2.55;;;;;;;;;;5053997;28;20060;-86
2024/03/11 06:20:03;;;;;;;2.72;2.63;;;;;;;;;;5068886;28;20091;-85
2024/03/11 06:22:31;;;;;;;2.60;2.50;;;;;;;;;;5052028;28;20045;-86
2024/03/11 06:24:59;;;;;;;3.75;3.50;;;;;;;;;;5069182;28;20052;-86
2024/03/11 06:27:27;;;;;;;4.20;3.90;;;;;;;;;;5069186;28;20493;-86
2024/03/11 06:29:56;;;;;;;3.35;3.15;;;;;;;;;;5053048;28;20136;-86
2024/03/11 06:32:30;;;;;;;2.92;2.72;;;;;;;;;;5053439;28;20056;-86
2024/03/11 06:34:58;;;;;;;3.22;3.03;;;;;;;;;;5068624;28;20055;-86
2024/03/11 06:37:25;;;;;;;3.05;2.85;;;;;;;;;;5069002;28;20461;-86
2024/03/11 06:39:52;;;;;;;3.03;2.83;;;;;;;;;;5052742;28;20098;-86
2024/03/11 06:42:20;;;;;;;2.67;2.58;;;;;;;;;;5052983;28;20501;-86
2024/03/11 06:44:47;;;;;;;3.00;2.63;;;;;;;;;;5068721;28;20053;-86
2024/03/11 06:47:15;;;;;;;2.85;2.72;;;;;;;;;;5068725;28;20407;-86
2024/03/11 06:49:42;;;;;;;2.97;2.67;;;;;;;;;;5068633;28;20053;-86
2024/03/11 06:52:10;;;;;;;2.65;2.55;;;;;;;;;;5068382;28;20129;-86
2024/03/11 06:54:37;;;;;;;2.55;2.45;;;;;;;;;;5068692;28;20056;-85
2024/03/11 06:57:10;;;;;;;2.42;2.33;;;;;;;;;;5052951;28;20049;-86
2024/03/11 06:59:37;;;;;;;2.15;2.05;;;;;;;;;;5052844;28;20075;-86
2024/03/11 07:02:05;;;;;;;2.35;2.25;;;;;;;;;;5068633;28;20429;-86
2024/03/11 07:04:32;;;;;;;2.00;1.90;;;;;;;;;;5053165;28;20071;-86
2024/03/11 07:07:00;;;;;;;1.90;1.80;;;;;;;;;;5049633;28;20103;-85
2024/03/11 07:09:28;;;;;;;1.60;1.60;;;;;;;;;;5063797;28;20048;-86
2024/03/11 07:11:55;;;;;;;1.50;1.48;;;;;;;;;;5068356;28;20490;-86
2024/03/11 07:14:23;;;;;;;2.45;1.35;;;;;;;;;;5068376;28;20049;-86
2024/03/11 07:16:53;;;;;;;1.52;1.42;;;;;;;;;;5068340;28;20048;-86
2024/03/11 07:19:26;;;;;;;1.55;1.55;;;;;;;;;;5051487;28;20444;-85
2024/03/11 07:21:54;;;;;;;1.23;1.23;;;;;;;;;;5068364;28;20052;-86
2024/03/11 07:24:21;;;;;;;1.65;1.55;;;;;;;;;;5052988;28;20045;-85
2024/03/11 07:26:48;;;;;;;1.20;1.20;;;;;;;;;;5068151;28;20489;-85
2024/03/11 07:29:15;;;;;;;2.10;1.60;;;;;;;;;;5051363;28;20049;-86
2024/03/11 07:31:43;;;;;;;1.13;1.13;;;;;;;;;;5068365;28;20087;-86
2024/03/11 07:34:11;;;;;;;1.40;1.40;;;;;;;;;;5051415;28;20056;-87
2024/03/11 07:36:38;;;;;;;1.60;1.50;;;;;;;;;;5051581;28;20049;-86
2024/03/11 07:39:05;;;;;;;1.00;1.00;;;;;;;;;;5052328;28;20048;-86
2024/03/11 07:41:34;;;;;;;0.80;0.80;;;;;;;;;;5051767;28;20052;-86
2024/03/11 07:44:01;;;;;;;0.68;0.68;;;;;;;;;;5067992;28;20045;-85
2024/03/11 07:46:30;;;;;;;0.80;0.70;;;;;;;;;;5072221;28;20107;-86
2024/03/11 07:48:59;;;;;;;1.05;0.93;;;;;;;;;;5071587;28;20502;-85
2024/03/11 07:51:27;;;;;;;0.43;0.43;;;;;;;;;;5072026;28;20052;-86
2024/03/11 07:53:55;;;;;;;1.13;0.60;;;;;;;;;;5071697;28;20056;-85
2024/03/11 07:56:22;;;;;;;0.68;0.68;;;;;;;;;;5071864;28;20079;-86
2024/03/11 07:58:49;;;;;;;0.40;0.40;;;;;;;;;;5071677;28;20110;-85
2024/03/11 08:01:21;;;;;;;0.60;0.60;;;;;;;;;;5071193;28;20053;-85
2024/03/11 08:03:50;;;;;;;0.50;0.50;;;;;;;;;;5071480;28;20527;-86
2024/03/11 08:06:18;;;;;;;0.50;0.50;;;;;;;;;;5071490;28;20060;-84
2024/03/11 08:08:45;;;;;;;0.60;0.60;;;;;;;;;;5055772;28;20040;-84
2024/03/11 08:11:13;;;;;;;0.52;0.52;;;;;;;;;;5056181;28;20049;-86
2024/03/11 08:13:41;;;;;;;0.30;0.30;;;;;;;;;;5047705;28;20110;-86
2024/03/11 08:16:11;;;;;;;0.88;0.47;;;;;;;;;;5071326;28;20079;-85
2024/03/11 08:18:44;;;;;;;0.40;0.40;;;;;;;;;;5071433;28;20069;-86
2024/03/11 08:21:12;;;;;;;0.50;0.50;;;;;;;;;;5071341;28;20791;-86
2024/03/11 08:23:40;;;;;;;0.50;0.50;;;;;;;;;;5071122;28;20421;-86
2024/03/11 08:26:08;;;;;;;0.30;0.30;;;;;;;;;;5071236;28;20057;-86
2024/03/11 08:28:39;;;;;;;0.40;0.40;;;;;;;;;;5054675;28;20497;-86
2024/03/11 08:31:07;;;;;;;3.90;0.60;;;;;;;;;;5063731;28;20331;-85
2024/03/11 08:33:35;;;;;;;0.63;0.63;;;;;;;;;;5055246;28;20056;-86
2024/03/11 08:36:05;;;;;;;0.30;0.30;;;;;;;;;;5062992;28;20146;-86
2024/03/11 08:38:33;;;;;;;3.20;0.35;;;;;;;;;;5070808;28;20118;-86
2024/03/11 08:41:00;;;;;;;1.45;0.50;;;;;;;;;;5070925;28;20045;-86
2024/03/11 08:43:28;;;;;;;1.23;0.60;;;;;;;;;;5055404;28;20140;-86
2024/03/11 08:45:57;;;;;;;0.88;0.30;;;;;;;;;;5055291;28;20049;-86
2024/03/11 08:48:26;;;;;;;0.40;0.40;;;;;;;;;;5055257;28;20056;-86
2024/03/11 08:50:54;;;;;;;5.40;0.68;;;;;;;;;;5055216;28;20432;-86
2024/03/11 08:53:21;;;;;;;0.50;0.50;;;;;;;;;;5055114;28;20052;-86
2024/03/11 08:55:49;;;;;;;0.60;0.60;;;;;;;;;;5054641;28;20053;-86
2024/03/11 08:58:19;;;;;;;0.47;0.47;;;;;;;;;;5070371;28;20068;-86
2024/03/11 09:00:47;;;;;;;0.57;0.50;;;;;;;;;;5054908;28;20132;-85
2024/03/11 09:03:15;;;;;;;1.33;0.85;;;;;;;;;;5054996;28;20045;-86
2024/03/11 09:05:46;;;;;;;3.35;0.85;;;;;;;;;;5045589;28;20052;-85
2024/03/11 09:08:14;;;;;;;0.68;0.68;;;;;;;;;;5054535;28;20061;-85
2024/03/11 09:10:41;;;;;;;0.80;0.80;;;;;;;;;;5070239;28;20519;-87
2024/03/11 09:13:12;;;;;;;1.10;0.80;;;;;;;;;;5054518;28;20553;-85
2024/03/11 09:15:39;;;;;;;1.17;1.08;;;;;;;;;;5054916;28;20045;-86
2024/03/11 09:18:09;;;;;;;1.05;1.00;;;;;;;;;;5070274;28;20049;-86
2024/03/11 09:20:37;;;;;;;4.43;1.67;;;;;;;;;;5053542;28;20055;-86
2024/03/11 09:23:07;;;;;;;1.05;1.05;;;;;;;;;;5045573;28;20057;-86
2024/03/11 09:25:36;;;;;;;0.90;0.90;;;;;;;;;;5069985;28;20497;-86
2024/03/11 09:28:04;;;;;;;1.30;1.02;;;;;;;;;;5046651;28;20049;-86
2024/03/11 09:30:35;;;;;;;3.15;1.10;;;;;;;;;;5070231;28;20049;-86
2024/03/11 09:33:05;;;;;;;2.50;0.93;;;;;;;;;;5054297;28;20104;-86
2024/03/11 09:35:34;;;;;;;3.03;1.17;;;;;;;;;;5070016;28;20045;-86
2024/03/11 09:38:02;;;;;;;2.67;0.73;;;;;;;;;;5042733;28;20053;-86
2024/03/11 09:40:31;;;;;;;1.35;1.10;;;;;;;;;;5058168;28;20502;-86
2024/03/11 09:42:59;;;;;;;1.27;1.10;;;;;;;;;;5052712;28;20111;-86
2024/03/11 09:45:28;;;;;;;1.02;1.02;;;;;;;;;;5053154;28;20049;-86
2024/03/11 09:47:57;;;;;;;0.80;0.80;;;;;;;;;;5054236;28;20057;-86
2024/03/11 09:50:28;;;;;;;2.38;0.95;;;;;;;;;;5069655;28;20049;-86
2024/03/11 09:53:03;;;;;;;1.02;1.02;;;;;;;;;;5069376;28;20071;-86
2024/03/11 09:55:31;;;;;;;2.08;1.02;;;;;;;;;;5054562;28;20051;-85
2024/03/11 09:58:06;;;;;;;1.65;1.02;;;;;;;;;;5069559;28;20048;-86
2024/03/11 10:00:34;;;;;;;1.40;0.90;;;;;;;;;;5069693;28;20053;-86
2024/03/11 10:03:09;;;;;;;1.25;1.00;;;;;;;;;;5046404;28;20056;-86
2024/03/11 10:05:36;;;;;;;2.63;0.93;;;;;;;;;;5054431;28;20514;-86
2024/03/11 10:08:04;;;;;;;1.30;0.90;;;;;;;;;;5044668;28;20372;-86
2024/03/11 10:10:32;;;;;;;0.85;0.85;;;;;;;;;;5052894;28;20052;-86
2024/03/11 10:13:00;;;;;;;0.75;0.75;;;;;;;;;;5053675;28;20053;-86
2024/03/11 10:15:29;;;;;;;0.60;0.60;;;;;;;;;;5052897;28;20451;-86
2024/03/11 10:18:01;;;;;;;1.20;0.75;;;;;;;;;;5052595;28;20120;-87
2024/03/11 10:20:34;;;;;;;1.55;0.63;;;;;;;;;;5069025;28;20053;-86
2024/03/11 10:23:09;;;;;;;0.70;0.70;;;;;;;;;;5053365;28;20045;-86
2024/03/11 10:25:40;;;;;;;1.00;0.82;;;;;;;;;;5053397;28;20056;-87
2024/03/11 10:28:07;;;;;;;0.95;0.70;;;;;;;;;;5068926;28;20083;-88
2024/03/11 10:30:36;;;;;;;2.53;0.60;;;;;;;;;;5053277;28;20099;-87
2024/03/11 10:33:03;;;;;;;1.50;0.63;;;;;;;;;;5052063;28;20084;-87
2024/03/11 10:35:34;;;;;;;1.60;0.60;;;;;;;;;;5068943;28;20136;-86
2024/03/11 10:38:08;;;;;;;1.05;0.80;;;;;;;;;;5068876;28;20084;-87
2024/03/11 10:40:38;;;;;;;0.93;0.50;;;;;;;;;;5068611;28;20055;-86
2024/03/11 10:43:25;;;;;;;0.63;0.60;;;;;;;;;;5052161;28;20048;-87
2024/03/11 10:45:53;;;;;;;0.82;0.60;;;;;;;;;;5051172;28;20077;-86
2024/03/11 10:48:23;;;;;;;2.28;0.50;;;;;;;;;;5062690;28;20594;-86
2024/03/11 10:50:56;;;;;;;1.48;0.70;;;;;;;;;;5068647;28;20406;-86
2024/03/11 10:53:23;;;;;;;3.17;0.73;;;;;;;;;;5068656;28;20493;-86
2024/03/11 10:55:57;;;;;;;2.42;0.90;;;;;;;;;;5052956;28;20049;-86
2024/03/11 10:58:28;;;;;;;0.93;0.90;;;;;;;;;;5051881;28;20053;-85
2024/03/11 11:00:57;;;;;;;0.60;0.47;;;;;;;;;;5052967;28;20056;-86
2024/03/11 11:03:26;;;;;;;1.20;0.85;;;;;;;;;;5068150;28;20048;-85
2024/03/11 11:06:09;;;;;;;0.90;0.50;;;;;;;;;;5052726;28;20059;-86
2024/03/11 11:08:42;;;;;;;1.70;0.90;;;;;;;;;;5051862;28;20041;-85
2024/03/11 11:11:17;;;;;;;3.88;0.70;;;;;;;;;;5045915;28;20295;-86
2024/03/11 11:13:49;;;;;;;0.93;0.70;;;;;;;;;;5051702;28;20142;-86
2024/03/11 11:16:18;;;;;;;1.80;0.85;;;;;;;;;;5068266;28;20056;-85
2024/03/11 11:18:47;;;;;;;0.70;0.70;;;;;;;;;;5068181;28;20052;-86
2024/03/11 11:21:16;;;;;;;2.63;0.50;;;;;;;;;;5067166;28;20083;-86
2024/03/11 11:23:43;;;;;;;1.38;0.70;;;;;;;;;;5061645;28;20477;-86
2024/03/11 11:26:11;;;;;;;0.95;0.70;;;;;;;;;;5072417;28;20045;-85
2024/03/11 11:28:39;;;;;;;0.88;0.55;;;;;;;;;;5072211;28;20055;-85
2024/03/11 11:31:14;;;;;;;1.02;0.57;;;;;;;;;;5072382;28;20123;-86
2024/03/11 11:33:51;;;;;;;0.50;0.50;;;;;;;;;;5072391;28;20084;-86
2024/03/11 11:36:46;;;;;;;1.13;0.60;;;;;;;;;;5072604;28;20115;-86
2024/03/11 11:39:27;;;;;;;1.83;0.50;;;;;;;;;;5048499;28;20509;-86
2024/03/11 11:41:57;;;;;;;2.25;0.70;;;;;;;;;;5055149;28;20053;-85
2024/03/11 11:44:27;;;;;;;0.47;0.32;;;;;;;;;;5056532;28;20516;-86
2024/03/11 11:47:03;;;;;;;3.05;0.90;;;;;;;;;;5071661;28;20390;-86
2024/03/11 11:49:34;;;;;;;0.50;0.50;;;;;;;;;;5071507;28;20102;-86
2024/03/11 11:52:02;;;;;;;2.80;0.70;;;;;;;;;;5056066;28;20045;-84
2024/03/11 11:54:32;;;;;;;0.80;0.63;;;;;;;;;;5055380;28;20123;-86
2024/03/11 11:57:16;;;;;;;1.00;0.60;;;;;;;;;;5055181;28;20080;-85
2024/03/11 11:59:53;;;;;;;11.10;1.08;;;;;;;;;;5071327;28;20114;-86
2024/03/11 12:02:26;;;;;;;0.57;0.32;;;;;;;;;;5071568;28;20481;-87
2024/03/11 12:04:54;;;;;;;0.32;0.22;;;;;;;;;;5055494;28;20370;-87
2024/03/11 12:07:22;;;;;;;3.65;0.40;;;;;;;;;;5071747;28;20064;-87
2024/03/11 12:09:57;;;;;;;3.95;0.60;;;;;;;;;;5071424;28;20123;-86
2024/03/11 12:12:28;;;;;;;1.38;0.70;;;;;;;;;;5056048;28;20052;-85
2024/03/11 12:14:56;;;;;;;2.72;0.80;;;;;;;;;;5071601;28;20500;-86
2024/03/11 12:17:29;;;;;;;3.67;0.70;;;;;;;;;;5055297;28;20045;-87
2024/03/11 12:20:30;;;;;;;1.40;0.52;;;;;;;;;;5054850;28;20102;-87
2024/03/11 12:23:00;;;;;;;6.95;1.02;;;;;;;;;;5055065;28;20075;-87
2024/03/11 12:25:32;;;;;;;1.17;0.60;;;;;;;;;;5071370;28;20511;-86
2024/03/11 12:28:04;;;;;;;2.45;0.65;;;;;;;;;;5055938;28;20109;-86
2024/03/11 12:30:36;;;;;;;0.60;0.47;;;;;;;;;;5055334;28;20386;-87
2024/03/11 12:33:06;;;;;;;3.90;0.60;;;;;;;;;;5062721;28;20059;-86
2024/03/11 12:35:36;;;;;;;0.43;0.30;;;;;;;;;;5070963;28;20107;-86
2024/03/11 12:38:05;;;;;;;3.58;0.65;;;;;;;;;;5063146;28;20049;-86
2024/03/11 12:40:42;;;;;;;0.85;0.60;;;;;;;;;;5070493;28;20103;-87
2024/03/11 12:43:14;;;;;;;7.55;1.00;;;;;;;;;;5048521;28;20045;-87
2024/03/11 12:45:43;;;;;;;1.15;0.40;;;;;;;;;;5053946;28;20048;-87
2024/03/11 12:48:13;;;;;;;0.38;0.35;;;;;;;;;;5070848;28;20056;-87
2024/03/11 12:50:41;;;;;;;0.55;0.30;;;;;;;;;;5071053;28;20041;-87
2024/03/11 12:53:20;;;;;;;4.55;0.98;;;;;;;;;;5070661;28;20076;-84
2024/03/11 12:55:47;;;;;;;0.85;0.50;;;;;;;;;;5070785;28;20053;-87
2024/03/11 12:58:15;;;;;;;1.17;0.35;;;;;;;;;;5070735;28;20049;-86
2024/03/11 13:00:46;;;;;;;4.10;0.50;;;;;;;;;;5053932;28;20084;-87
2024/03/11 13:03:18;;;;;;;1.17;0.50;;;;;;;;;;5070917;28;20053;-87
2024/03/11 13:05:59;;;;;;;1.33;0.22;;;;;;;;;;5054914;28;20470;-86
2024/03/11 13:08:31;;;;;;;0.20;0.20;;;;;;;;;;5054773;28;20057;-86
2024/03/11 13:11:08;;;;;;;0.38;0.30;;;;;;;;;;5053939;28;20551;-85
2024/03/11 13:13:43;;;;;;;1.10;0.40;;;;;;;;;;5054928;28;20048;-86
2024/03/11 13:16:15;;;;;;;0.63;0.30;;;;;;;;;;5047854;28;20167;-86
2024/03/11 13:18:44;;;;;;;2.65;0.40;;;;;;;;;;5053946;28;20405;-86
2024/03/11 13:21:19;;;;;;;1.73;0.43;;;;;;;;;;5054805;28;20466;-87
2024/03/11 13:23:47;;;;;;;0.98;0.32;;;;;;;;;;5054889;28;20056;-87
2024/03/11 13:26:17;;;;;;;1.00;0.40;;;;;;;;;;5070411;28;20132;-86
2024/03/11 13:28:47;;;;;;;1.85;0.50;;;;;;;;;;5054586;28;20057;-86
2024/03/11 13:31:15;;;;;;;0.40;0.30;;;;;;;;;;5070153;28;20077;-86
2024/03/11 13:33:44;;;;;;;1.52;0.43;;;;;;;;;;5069727;28;20081;-86
2024/03/11 13:36:12;;;;;;;7.65;0.43;;;;;;;;;;5069874;28;20049;-85
2024/03/11 13:38:41;;;;;;;4.32;0.30;;;;;;;;;;5069368;28;20509;-86
2024/03/11 13:41:10;;;;;;;4.32;0.38;;;;;;;;;;5053648;28;20057;-86
2024/03/11 13:43:39;;;;;;;0.50;0.35;;;;;;;;;;5069311;28;20405;-87
2024/03/11 13:46:12;;;;;;;1.98;0.35;;;;;;;;;;5046755;28;20285;-86
2024/03/11 13:48:41;;;;;;;0.98;0.30;;;;;;;;;;5054296;28;20067;-87
2024/03/11 13:51:10;;;;;;;0.30;0.30;;;;;;;;;;5054336;28;20080;-86
2024/03/11 13:53:37;;;;;;;22.65;2.45;;;;;;;;;;5054028;28;20057;-86
2024/03/11 13:56:06;;;;;;;2.70;0.40;;;;;;;;;;5054020;28;20053;-86
2024/03/11 13:58:35;;;;;;;1.55;0.50;;;;;;;;;;5052887;28;20049;-87
2024/03/11 14:01:03;;;;;;;2.22;0.25;;;;;;;;;;5060952;28;20044;-87
2024/03/11 14:03:30;;;;;;;0.30;0.30;;;;;;;;;;5069573;28;20045;-87
2024/03/11 14:05:58;;;;;;;2.97;0.47;;;;;;;;;;5069163;28;20053;-86
2024/03/11 14:08:25;;;;;;;2.67;0.30;;;;;;;;;;5069307;28;20049;-86
2024/03/11 14:10:52;;;;;;;3.60;0.50;;;;;;;;;;5069371;28;20045;-87
2024/03/11 14:13:21;;;;;;;0.70;0.60;;;;;;;;;;5053560;28;20511;-85
2024/03/11 14:15:49;;;;;;;1.17;0.40;;;;;;;;;;5044284;28;20053;-86
2024/03/11 14:18:18;;;;;;;0.20;0.20;;;;;;;;;;5052835;28;20051;-86
2024/03/11 14:20:47;;;;;;;0.43;0.30;;;;;;;;;;5052297;28;20053;-86
2024/03/11 14:23:15;;;;;;;3.35;0.50;;;;;;;;;;5053565;28;20547;-87
2024/03/11 14:25:42;;;;;;;0.38;0.30;;;;;;;;;;5052675;28;20045;-86
2024/03/11 14:28:12;;;;;;;1.67;0.30;;;;;;;;;;5052644;28;20497;-87
2024/03/11 14:30:40;;;;;;;0.32;0.30;;;;;;;;;;5052571;28;20048;-87
2024/03/11 14:33:08;;;;;;;0.57;0.40;;;;;;;;;;5068986;28;20464;-86
2024/03/11 14:35:37;;;;;;;3.40;0.70;;;;;;;;;;5053485;28;20532;-87
2024/03/11 14:38:08;;;;;;;0.43;0.35;;;;;;;;;;5045522;28;20052;-87
2024/03/11 14:40:42;;;;;;;7.05;0.60;;;;;;;;;;5068483;28;20057;-86
2024/03/11 14:43:12;;;;;;;0.40;0.40;;;;;;;;;;5052195;28;20048;-87
2024/03/11 14:45:40;;;;;;;0.77;0.30;;;;;;;;;;5053200;28;20103;-87
2024/03/11 14:48:13;;;;;;;0.73;0.30;;;;;;;;;;5053232;28;20049;-87